Latest Weather Observations for Richmond

IDQ60801

Issued at 6:32 am EST Friday 29 May 2015 (issued every 30 minutes, with the page automatically refreshed every 10 minutes)

About weather observations | Map of weather stations | Latest weather observations for QLD | Other Formats
Station Details ID: 030161 Name: RICHMOND AIRPORT Lat: -20.70 Lon: 143.12 Height: 206.3 m
Data from the previous 72 hours. | See also: Recent months at Richmond
Date/Time
EST
Temp
°C
App
Temp
°C
Dew
Point
Rel
Hum
%
Delta-T
°C
Wind Press
QNH
hPa
Press
MSL
hPa
Rain
since 9 am
mm
Dir
 
Spd
km/h
Gust
km/h
Spd
kts
Gust
kts
29/06:30am 17.5 15.7 12.2 71 2.9 E 13 13 7 7 1018.6 1017.9 0.0
29/06:00am 17.9 16.1 12.1 69 3.2 E 13 15 7 8 1018.3 1017.6 0.0
29/05:30am 18.4 16.7 12.4 68 3.4 E 13 15 7 8 1018.2 1017.5 0.0
29/05:00am 19.6 18.4 12.8 65 3.9 ENE 11 15 6 8 1018.1 1017.4 0.0
29/04:30am 21.0 18.8 13.4 62 4.4 ENE 17 24 9 13 1017.8 1017.1 0.0
29/04:00am 21.7 19.1 13.9 61 4.6 NE 20 30 11 16 1017.5 1016.8 0.0
29/03:30am 21.7 19.2 13.6 60 4.7 NE 19 30 10 16 1017.6 1016.9 0.0
29/03:00am 21.8 19.7 13.7 60 4.7 NE 17 22 9 12 1017.8 1017.1 0.0
29/02:30am 21.5 20.5 12.4 56 5.2 ENE 9 19 5 10 1018.1 1017.4 0.0
29/02:00am 22.0 20.4 12.8 56 5.3 NE 13 20 7 11 1018.3 1017.6 0.0
29/01:30am 20.8 19.2 11.7 56 5.1 ENE 11 15 6 8 1018.2 1017.5 0.0
29/01:00am 20.0 18.4 10.1 53 5.4 ENE 9 11 5 6 1018.4 1017.7 0.0
29/12:30am 20.3 17.9 10.1 52 5.5 E 13 15 7 8 1018.4 1017.7 0.0
29/12:00am 20.1 17.4 9.1 49 5.9 E 13 15 7 8 1018.4 1017.7 0.0
 
Date/Time
EST
Temp
°C
App
Temp
°C
Dew
Point
Rel
Hum
%
Delta-T
°C
Wind Press
QNH
hPa
Press
MSL
hPa
Rain
since 9 am
mm
Dir
 
Spd
km/h
Gust
km/h
Spd
kts
Gust
kts
28/11:00pm 21.5 18.5 9.1 45 6.7 ESE 15 17 8 9 1018.6 1017.9 0.0
28/10:30pm 22.3 18.9 9.1 43 7.1 ESE 17 19 9 10 1018.4 1017.7 0.0
28/10:00pm 23.3 19.9 9.0 40 7.7 ESE 17 19 9 10 1018.4 1017.7 0.0
28/09:30pm 24.4 20.4 9.2 38 8.3 ESE 20 24 11 13 1018.1 1017.4 0.0
28/09:00pm 25.3 21.0 9.2 36 8.8 ESE 22 28 12 15 1018.0 1017.3 0.0
28/08:30pm 25.6 21.2 9.0 35 9.1 ESE 22 26 12 14 1017.8 1017.1 0.0
28/08:00pm 26.3 22.0 9.2 34 9.4 ESE 22 26 12 14 1017.4 1016.7 0.0
28/07:30pm 26.5 22.5 8.9 33 9.7 ESE 20 28 11 15 1017.1 1016.4 0.0
28/07:00pm 26.5 22.8 9.4 34 9.5 SE 19 22 10 12 1016.7 1015.9 0.0
28/06:30pm 26.0 22.8 8.5 33 9.5 SE 15 17 8 9 1016.3 1015.5 0.0
28/06:00pm 28.0 24.9 8.8 30 10.6 ESE 15 17 8 9 1015.8 1015.0 0.0
28/05:30pm 30.2 26.4 9.1 27 11.9 ESE 19 24 10 13 1015.6 1014.8 0.0
28/05:00pm 30.9 27.3 9.7 27 12.1 ESE 19 24 10 13 1015.3 1014.5 0.0
28/04:30pm 31.2 27.5 10.0 27 12.2 E 20 28 11 15 1015.2 1014.4 0.0
28/04:00pm 31.6 29.3 10.3 27 12.3 ENE 13 22 7 12 1015.1 1014.3 0.0
28/03:30pm 31.1 27.3 9.9 27 12.1 E 20 28 11 15 1015.1 1014.3 0.0
28/03:00pm 31.4 28.4 10.7 28 12.0 E 17 32 9 17 1015.2 1014.4 0.0
28/02:30pm 30.8 28.2 10.7 29 11.6 E 15 24 8 13 1015.5 1014.7 0.0
28/02:00pm 30.6 27.2 11.1 30 11.3 ENE 20 33 11 18 1015.7 1014.9 0.0
28/01:30pm 30.0 27.1 11.0 31 11.0 NE 17 28 9 15 1016.1 1015.3 0.0
28/01:00pm 29.3 26.6 11.8 34 10.2 ENE 17 32 9 17 1017.0 1016.3 0.0
28/12:30pm 28.8 25.6 11.8 35 9.9 E 20 28 11 15 1017.5 1016.8 0.0
28/12:00pm 28.4 25.6 12.7 38 9.3 NE 19 28 10 15 1018.0 1017.3 0.0
28/11:30am 27.7 24.1 12.9 40 8.8 E 24 32 13 17 1018.6 1017.9 0.0
28/11:00am 27.2 24.4 13.2 42 8.3 ENE 20 30 11 16 1019.1 1018.4 0.0
28/10:30am 26.1 22.4 13.9 47 7.3 E 26 35 14 19 1019.6 1018.8 0.0
28/10:00am 25.1 22.1 13.6 49 6.8 E 22 30 12 16 1019.9 1019.1 0.0
28/09:30am 24.2 21.8 14.3 54 5.9 E 20 28 11 15 1020.1 1019.3 0.0
28/09:00am 22.4 20.9 14.3 60 4.8 E 15 20 8 11 1019.9 1019.1 0.0
28/08:30am 20.5 18.8 13.5 64 4.1 E 15 19 8 10 1019.7 1018.9 0.0
28/08:00am 18.5 16.8 12.5 68 3.4 E 13 20 7 11 1019.1 1018.4 0.0
28/07:30am 15.8 14.0 10.8 72 2.7 E 11 13 6 7 1018.9 1018.2 0.0
28/07:00am 14.8 12.8 10.0 73 2.5 E 11 13 6 7 1018.5 1017.8 0.0
28/06:30am 15.4 13.5 10.6 73 2.6 E 11 13 6 7 1018.0 1017.3 0.0
28/06:00am 15.2 13.0 10.8 75 2.4 ESE 13 15 7 8 1018.0 1017.3 0.0
28/05:30am 14.1 12.0 8.3 68 2.9 SE 9 11 5 6 1017.8 1017.1 0.0
28/05:00am 16.0 14.1 10.5 70 2.9 ESE 11 13 6 7 1017.5 1016.8 0.0
28/04:30am 16.8 15.1 11.3 70 3.0 E 11 13 6 7 1017.4 1016.7 0.0
28/04:00am 17.7 15.8 11.7 68 3.3 E 13 15 7 8 1017.4 1016.7 0.0
28/03:30am 18.7 16.9 12.0 65 3.7 E 13 13 7 7 1017.1 1016.4 0.0
28/03:00am 18.4 17.3 11.9 66 3.6 ENE 9 11 5 6 1017.2 1016.5 0.0
28/02:30am 18.5 16.9 11.6 64 3.8 ENE 11 15 6 8 1017.4 1016.7 0.0
28/02:00am 18.8 16.7 11.1 61 4.2 E 13 15 7 8 1017.6 1016.9 0.0
28/01:30am 19.1 16.6 11.2 60 4.4 E 15 17 8 9 1017.8 1017.1 0.0
28/01:00am 19.6 17.5 11.1 58 4.7 ESE 13 17 7 9 1017.8 1017.1 0.0
28/12:30am 21.3 19.1 12.2 56 5.2 E 15 17 8 9 1017.9 1017.2 0.0
28/12:00am 22.0 19.4 12.0 53 5.7 E 17 20 9 11 1018.0 1017.3 0.0
 
Date/Time
EST
Temp
°C
App
Temp
°C
Dew
Point
Rel
Hum
%
Delta-T
°C
Wind Press
QNH
hPa
Press
MSL
hPa
Rain
since 9 am
mm
Dir
 
Spd
km/h
Gust
km/h
Spd
kts
Gust
kts
27/11:30pm 23.1 20.2 12.4 51 6.1 E 19 20 10 11 1018.1 1017.4 0.0
27/11:00pm 22.8 21.0 12.1 51 6.1 ENE 13 20 7 11 1018.1 1017.4 0.0
27/10:30pm 23.5 21.0 12.2 49 6.5 E 17 22 9 12 1017.9 1017.2 0.0
27/10:00pm 23.9 21.0 12.2 48 6.7 ESE 19 22 10 12 1017.6 1016.9 0.0
27/09:30pm 24.4 21.5 12.4 47 6.9 E 19 24 10 13 1017.4 1016.7 0.0
27/09:00pm 24.9 21.9 12.5 46 7.2 ESE 20 28 11 15 1017.5 1016.8 0.0
27/08:30pm 25.0 21.9 12.2 44 7.4 ESE 20 24 11 13 1017.3 1016.6 0.0
27/08:00pm 25.2 22.2 12.1 44 7.6 ESE 19 24 10 13 1017.0 1016.3 0.0
27/07:30pm 25.1 22.0 11.6 42 7.7 ESE 19 22 10 12 1016.7 1015.9 0.0
27/07:00pm 25.1 22.5 10.6 40 8.1 ESE 15 17 8 9 1016.6 1015.8 0.0
27/06:30pm 26.3 23.6 10.5 37 8.9 ESE 15 17 8 9 1016.2 1015.4 0.0
27/06:00pm 27.6 24.5 10.3 34 9.8 ESE 17 22 9 12 1016.0 1015.2 0.0
27/05:30pm 28.6 25.1 10.8 33 10.2 ESE 20 28 11 15 1015.6 1014.8 0.0
27/05:00pm 29.3 26.0 10.9 32 10.6 E 19 28 10 15 1015.5 1014.7 0.0
27/04:30pm 29.5 26.7 11.5 33 10.5 ESE 17 26 9 14 1015.2 1014.4 0.0
27/04:00pm 29.5 26.2 11.5 33 10.5 ESE 20 30 11 16 1015.2 1014.4 0.0
27/03:30pm 29.3 26.0 10.9 32 10.6 E 19 30 10 16 1015.4 1014.6 0.0
27/03:00pm 29.3 26.0 10.9 32 10.6 E 19 26 10 14 1015.7 1014.9 0.0
27/02:30pm 29.1 25.7 11.2 33 10.4 E 20 28 11 15 1016.1 1015.3 0.0
27/02:00pm 28.8 25.3 10.9 33 10.3 E 20 28 11 15 1016.4 1015.6 0.0
27/01:30pm 28.6 25.0 9.8 31 10.6 E 19 30 10 16 1016.7 1015.9 0.0
27/01:00pm 28.7 25.1 10.4 32 10.4 E 20 35 11 19 1017.5 1016.8 0.0
27/12:30pm 28.8 25.4 10.5 32 10.5 E 19 28 10 15 1018.2 1017.5 0.0
27/12:00pm 27.8 24.2 10.5 34 9.8 E 20 32 11 17 1018.8 1018.1 0.0
27/11:30am 27.1 23.8 11.6 38 9.0 E 20 32 11 17 1019.6 1018.8 0.0
27/11:00am 26.4 23.4 12.5 42 8.1 E 20 30 11 16 1020.1 1019.3 0.0
27/10:30am 25.6 22.9 12.8 45 7.5 E 19 26 10 14 1020.7 1019.9 0.0
27/10:00am 24.3 21.5 13.2 50 6.5 E 20 28 11 15 1020.9 1020.1 0.0
27/09:30am 22.7 20.4 12.9 54 5.7 E 17 24 9 13 1020.9 1020.1 0.0
27/09:00am 20.8 18.3 12.2 58 4.9 E 17 20 9 11 1021.0 1020.2 0.0
27/08:30am 19.6 18.1 11.9 61 4.3 ESE 11 17 6 9 1020.8 1020.0 0.0
27/08:00am 17.6 16.2 10.9 65 3.6 ESE 9 11 5 6 1020.5 1019.7 0.0
27/07:30am 15.4 13.3 9.7 69 3.0 ESE 11 11 6 6 1020.3 1019.5 0.0
27/07:00am 14.4 12.1 9.0 70 2.8 ESE 11 13 6 7 1020.1 1019.3 0.0
27/06:30am 14.6 11.9 9.0 69 2.9 ESE 13 15 7 8 1019.6 1018.8 0.0
27/06:00am 14.7 12.4 8.9 68 3.0 ESE 11 13 6 7 1019.1 1018.4 0.0
27/05:30am 15.1 12.4 9.0 67 3.1 E 13 13 7 7 1018.8 1018.1 0.0
27/05:00am 15.7 13.1 9.4 66 3.3 E 13 13 7 7 1018.4 1017.7 0.0
27/04:30am 16.5 14.4 9.9 65 3.5 E 11 13 6 7 1018.4 1017.7 0.0
27/04:00am 16.8 14.4 10.0 64 3.6 E 13 13 7 7 1018.5 1017.8 0.0
27/03:30am 16.6 14.0 9.5 63 3.7 ESE 13 15 7 8 1018.6 1017.9 0.0
27/03:00am 17.2 15.1 9.6 61 4.0 E 11 13 6 7 1018.5 1017.8 0.0
27/02:30am 17.8 15.7 9.7 59 4.3 ESE 11 13 6 7 1018.6 1017.9 0.0
27/02:00am 18.7 15.9 10.0 57 4.7 ESE 15 17 8 9 1018.8 1018.1 0.0
27/01:30am 19.2 16.1 10.2 56 4.9 ESE 17 19 9 10 1019.2 1018.5 0.0
27/01:00am 19.7 16.9 10.1 54 5.2 ESE 15 17 8 9 1019.4 1018.7 0.0
27/12:30am 20.3 16.9 10.4 53 5.4 ESE 19 20 10 11 1019.2 1018.5 0.0
27/12:00am 20.9 17.3 10.4 51 5.7 ESE 20 26 11 14 1019.2 1018.5 0.0
 
Date/Time
EST
Temp
°C
App
Temp
°C
Dew
Point
Rel
Hum
%
Delta-T
°C
Wind Press
QNH
hPa
Press
MSL
hPa
Rain
since 9 am
mm
Dir
 
Spd
km/h
Gust
km/h
Spd
kts
Gust
kts
26/11:30pm 21.1 17.1 10.3 50 5.9 ESE 22 28 12 15 1019.3 1018.6 0.0
26/11:00pm 21.4 17.7 10.3 49 6.1 ESE 20 26 11 14 1019.4 1018.7 0.0
26/10:30pm 22.1 18.1 10.6 48 6.4 ESE 22 28 12 15 1019.1 1018.4 0.0
26/10:00pm 22.4 18.4 10.5 47 6.6 ESE 22 26 12 14 1019.6 1018.8 0.0
26/09:30pm 22.6 18.6 10.4 46 6.8 ESE 22 30 12 16 1019.3 1018.6 0.0
26/09:00pm 23.3 19.3 10.4 44 7.2 ESE 22 28 12 15 1019.2 1018.5 0.0
26/08:30pm 24.0 20.4 10.7 43 7.5 SE 20 28 11 15 1019.1 1018.4 0.0
26/08:00pm 24.1 20.5 10.7 43 7.5 SE 20 24 11 13 1019.0 1018.3 0.0
26/07:30pm 24.6 21.0 10.5 41 7.9 SE 20 24 11 13 1018.6 1017.9 0.0
26/07:00pm 25.0 21.5 10.1 39 8.3 SE 19 24 10 13 1018.4 1017.7 0.0
26/06:30pm 25.0 22.0 9.3 37 8.6 SE 15 19 8 10 1018.0 1017.3 0.0
26/06:00pm 26.7 23.1 10.0 35 9.4 ESE 19 22 10 12 1017.7 1017.0 0.0
26/05:30pm 28.9 25.5 10.6 32 10.5 ESE 19 26 10 14 1017.4 1016.7 0.0
26/05:00pm 28.6 23.8 10.3 32 10.4 ESE 26 32 14 17 1017.2 1016.5 0.0
26/04:30pm 28.7 24.5 9.9 31 10.6 ESE 22 33 12 18 1017.2 1016.5 0.0
26/04:00pm 29.1 25.6 10.3 31 10.7 SE 19 28 10 15 1017.2 1016.5 0.0
26/03:30pm 29.0 25.3 10.2 31 10.7 ESE 20 30 11 16 1017.4 1016.7 0.0
26/03:00pm 29.0 25.9 10.2 31 10.7 ESE 17 24 9 13 1017.5 1016.8 0.0
26/02:30pm 28.8 25.5 9.5 30 10.9 E 17 30 9 16 1017.7 1017.0 0.0
26/02:00pm 29.3 25.9 10.4 31 10.8 SE 19 30 10 16 1018.0 1017.3 0.0
26/01:30pm 28.6 25.5 10.3 32 10.4 E 17 30 9 16 1018.6 1017.9 0.0
26/01:00pm 27.8 24.8 10.5 34 9.8 ESE 17 24 9 13 1019.4 1018.7 0.0
26/12:30pm 26.7 23.5 11.2 38 8.9 E 19 28 10 15 1020.2 1019.4 0.0
26/12:00pm 27.2 24.2 12.0 38 8.8 ENE 19 28 10 15 1020.9 1020.1 0.0
26/11:30am 26.0 23.2 12.5 43 7.9 E 19 24 10 13 1021.4 1020.7 0.0
26/11:00am 25.9 22.9 12.4 43 7.8 ENE 20 32 11 17 1022.0 1021.3 0.0
26/10:30am 24.6 20.8 12.5 46 7.0 E 24 32 13 17 1022.5 1021.8 0.0
26/10:00am 23.6 20.0 12.9 51 6.2 E 24 32 13 17 1022.8 1022.1 0.0
26/09:30am 22.9 19.4 13.4 55 5.5 E 24 32 13 17 1022.9 1022.2 0.0
26/09:00am 21.2 18.3 12.9 59 4.8 ENE 20 33 11 18 1022.9 1022.2 0.0
26/08:30am 20.6 17.8 12.6 60 4.6 E 19 28 10 15 1022.8 1022.1 0.0
26/08:00am 18.5 17.1 12.3 67 3.5 ESE 11 13 6 7 1022.5 1021.8 0.0
26/07:30am 16.2 14.5 11.2 72 2.7 E 11 13 6 7 1022.0 1021.3 0.0
26/07:00am 15.2 12.9 10.6 74 2.4 E 13 13 7 7 1021.8 1021.1 0.0

Other Formats:

Comma delimited format used in spreadsheet applications
http://www.bom.gov.au/fwo/IDQ60801/IDQ60801.94341.axf

JavaScript Object Notation format (JSON) in row-major order
http://www.bom.gov.au/fwo/IDQ60801/IDQ60801.94341.json